Time;durP1;ratioP1;P1;durP2;ratioP2;P2;SDS_P1;SDS_P2;PMS_P1;PMS_P2;Temp;Humidity;BMP_temperature;BMP_pressure;BME280_temperature;BME280_humidity;BME280_pressure;Samples;Min_cycle;Max_cycle;Signal;HPM_P1;HPM_P2
2021/12/06 00:01:33;;;;;;;45.10;19.85;;;2.90;99.90;;;;;;4987777;28;20093;-81
2021/12/06 00:04:06;;;;;;;43.13;19.20;;;2.90;99.90;;;;;;4978403;28;20058;-81
2021/12/06 00:06:37;;;;;;;37.65;17.58;;;2.90;99.90;;;;;;5008796;28;20049;-81
2021/12/06 00:09:06;;;;;;;40.78;18.50;;;2.90;99.90;;;;;;4991826;28;20189;-81
2021/12/06 00:11:34;;;;;;;40.75;17.20;;;3.40;99.90;;;;;;5008277;28;20136;-81
2021/12/06 00:14:01;;;;;;;42.50;18.52;;;2.90;99.90;;;;;;5006878;28;20069;-82
2021/12/06 00:16:27;;;;;;;35.15;16.65;;;3.10;99.90;;;;;;4981797;28;20049;-80
2021/12/06 00:18:53;;;;;;;38.42;15.73;;;2.90;99.90;;;;;;4994403;28;20117;-81
2021/12/06 00:21:21;;;;;;;40.95;17.85;;;2.90;99.90;;;;;;4986618;28;20054;-81
2021/12/06 00:23:47;;;;;;;43.00;18.55;;;3.20;99.90;;;;;;4978366;28;20567;-81
2021/12/06 00:26:13;;;;;;;;;;;2.90;99.90;;;;;;4988765;28;20098;-81
2021/12/06 00:28:40;;;;;;;38.53;15.95;;;2.90;99.90;;;;;;4989235;28;20338;-81
2021/12/06 00:31:06;;;;;;;35.72;17.23;;;3.10;99.90;;;;;;4971491;28;20054;-82
2021/12/06 00:33:32;;;;;;;35.83;16.65;;;2.80;99.90;;;;;;4993776;28;20407;-81
2021/12/06 00:36:03;;;;;;;;;;;2.80;99.90;;;;;;5008323;28;20061;-81
2021/12/06 00:38:31;;;;;;;38.92;15.43;;;2.80;99.90;;;;;;4992191;28;20379;-81
2021/12/06 00:40:57;;;;;;;41.63;16.58;;;2.80;99.90;;;;;;5007855;28;20070;-81
2021/12/06 00:43:23;;;;;;;42.25;17.75;;;2.70;99.90;;;;;;4991956;28;20053;-81
2021/12/06 00:45:49;;;;;;;41.50;17.55;;;2.80;99.90;;;;;;4986870;28;20192;-81
2021/12/06 00:48:15;;;;;;;43.47;17.40;;;2.70;99.90;;;;;;4977659;28;20061;-81
2021/12/06 00:50:43;;;;;;;37.97;15.65;;;2.70;99.90;;;;;;5011810;28;20049;-81
2021/12/06 00:53:09;;;;;;;40.30;16.20;;;2.70;99.90;;;;;;5001780;28;20408;-81
2021/12/06 00:55:35;;;;;;;39.92;15.95;;;2.70;99.90;;;;;;5004535;28;20042;-81
2021/12/06 00:58:01;;;;;;;40.47;16.70;;;2.70;99.90;;;;;;5007884;28;20385;-81
2021/12/06 01:00:35;;;;;;;38.65;16.65;;;2.70;99.90;;;;;;4991119;28;20057;-81
2021/12/06 01:03:06;;;;;;;47.42;16.92;;;2.70;99.90;;;;;;5007507;28;20488;-81
2021/12/06 01:05:32;;;;;;;39.95;17.13;;;2.70;99.90;;;;;;5008060;28;20053;-81
2021/12/06 01:07:58;;;;;;;41.50;17.27;;;2.70;99.90;;;;;;4995447;28;20491;-81
2021/12/06 01:10:25;;;;;;;44.53;16.98;;;2.60;99.90;;;;;;4959608;28;20050;-81
2021/12/06 01:12:51;;;;;;;40.38;17.90;;;3.00;99.90;;;;;;4990671;28;20062;-81
2021/12/06 01:15:18;;;;;;;41.63;17.45;;;2.60;99.90;;;;;;4990845;28;20054;-81
2021/12/06 01:17:48;;;;;;;43.80;17.75;;;2.70;99.90;;;;;;4958573;28;20058;-81
2021/12/06 01:20:19;;;;;;;44.65;17.63;;;2.50;99.90;;;;;;4991312;28;20054;-81
2021/12/06 01:25:55;;;;;;;46.38;18.00;;;2.50;99.90;;;;;;4992517;28;20062;-81
2021/12/06 01:31:05;;;;;;;47.58;18.88;;;2.50;99.90;;;;;;5006678;28;20101;-82
2021/12/06 01:41:35;;;;;;;50.63;18.52;;;2.40;99.90;;;;;;4991203;28;20050;-81
2021/12/06 01:44:23;;;;;;;50.08;19.38;;;2.70;99.90;;;;;;4990769;28;20078;-81
2021/12/06 01:47:02;;;;;;;51.63;18.60;;;3.10;99.90;;;;;;4973210;28;20554;-81
2021/12/06 01:49:32;;;;;;;54.10;20.73;;;2.50;99.90;;;;;;4975001;28;20480;-81
2021/12/06 01:52:01;;;;;;;52.60;20.15;;;2.40;99.90;;;;;;4975009;28;20472;-81
2021/12/06 01:54:27;;;;;;;47.67;19.13;;;2.50;99.90;;;;;;5001518;28;20045;-81
2021/12/06 01:56:53;;;;;;;53.17;20.50;;;2.70;99.90;;;;;;5009086;28;20052;-81
2021/12/06 01:59:20;;;;;;;56.53;20.48;;;2.50;99.90;;;;;;4994138;28;20058;-81
2021/12/06 02:01:47;;;;;;;56.80;20.52;;;2.50;99.90;;;;;;4993382;28;20052;-81
2021/12/06 02:04:13;;;;;;;52.17;19.52;;;2.50;99.90;;;;;;4981277;28;20042;-81
2021/12/06 02:06:40;;;;;;;50.95;19.75;;;2.50;99.90;;;;;;4974789;28;20451;-81
2021/12/06 02:09:10;;;;;;;46.47;19.50;;;2.60;99.90;;;;;;4974545;28;20062;-81
2021/12/06 02:11:39;;;;;;;51.88;19.85;;;2.50;99.90;;;;;;5010094;28;20376;-81
2021/12/06 02:17:40;;;;;;;51.05;19.83;;;2.50;99.90;;;;;;5008309;28;20554;-81
2021/12/06 02:19:50;;;;;;;57.40;19.60;;;2.50;99.90;;;;;;5006719;28;20385;-81
2021/12/06 02:22:25;;;;;;;56.67;19.63;;;2.40;99.90;;;;;;4996497;28;20042;-81
2021/12/06 02:24:54;;;;;;;59.28;21.10;;;2.40;99.90;;;;;;5007213;28;20062;-81
2021/12/06 02:27:22;;;;;;;53.80;20.15;;;2.50;99.90;;;;;;4974279;28;20046;-81
2021/12/06 02:29:49;;;;;;;58.47;21.30;;;2.50;99.90;;;;;;4974581;28;20050;-81
2021/12/06 02:32:15;;;;;;;63.90;22.45;;;2.50;99.90;;;;;;4988220;28;20491;-81
2021/12/06 02:34:45;;;;;;;63.45;21.20;;;2.50;99.90;;;;;;4988258;28;20049;-81
2021/12/06 02:37:14;;;;;;;58.35;21.23;;;2.50;99.90;;;;;;4993216;28;20116;-81
2021/12/06 02:39:39;;;;;;;59.58;21.00;;;2.60;99.90;;;;;;5010054;28;20080;-81
2021/12/06 02:42:08;;;;;;;60.63;22.23;;;2.60;99.90;;;;;;4992771;28;20559;-81
2021/12/06 02:44:34;;;;;;;59.97;22.00;;;2.60;99.90;;;;;;5009918;28;20054;-81
2021/12/06 02:46:59;;;;;;;57.83;21.20;;;2.60;99.90;;;;;;4991168;28;20488;-80
2021/12/06 02:49:25;;;;;;;63.75;21.90;;;2.60;99.90;;;;;;4995291;28;20041;-81
2021/12/06 02:51:52;;;;;;;58.92;21.08;;;2.60;99.90;;;;;;5007278;28;20129;-81
2021/12/06 02:54:21;;;;;;;;;;;3.20;99.90;;;;;;5007049;28;20072;-81
2021/12/06 02:57:06;;;;;;;60.80;19.75;;;2.60;99.90;;;;;;5006748;28;20108;-81
2021/12/06 02:59:32;;;;;;;59.05;21.42;;;2.80;99.90;;;;;;5007102;28;20487;-81
2021/12/06 03:02:02;;;;;;;56.40;20.20;;;2.60;99.90;;;;;;4996382;28;20101;-81
2021/12/06 03:04:28;;;;;;;53.47;20.58;;;3.10;99.90;;;;;;5010022;28;20042;-82
2021/12/06 03:06:55;;;;;;;54.38;21.17;;;2.80;99.90;;;;;;5010102;28;20054;-81
2021/12/06 03:09:28;;;;;;;58.42;20.50;;;2.60;99.90;;;;;;5010048;28;20084;-81
2021/12/06 03:11:59;;;;;;;59.80;20.67;;;2.60;99.90;;;;;;4992521;28;20069;-81
2021/12/06 03:14:31;;;;;;;61.97;21.80;;;2.90;99.90;;;;;;5009583;28;20126;-82
2021/12/06 03:16:59;;;;;;;62.85;22.73;;;2.60;99.90;;;;;;4995119;28;20499;-81
2021/12/06 03:19:24;;;;;;;65.72;22.23;;;2.70;99.90;;;;;;5006850;28;20060;-81
2021/12/06 03:21:51;;;;;;;66.38;22.33;;;2.60;99.90;;;;;;4974065;28;20054;-81
2021/12/06 03:24:17;;;;;;;63.85;22.17;;;2.60;99.90;;;;;;4973554;28;20042;-81
2021/12/06 03:26:44;;;;;;;68.90;23.85;;;2.60;99.90;;;;;;4989929;28;20046;-81
2021/12/06 03:29:10;;;;;;;64.57;22.83;;;2.60;99.90;;;;;;4989632;28;20467;-81
2021/12/06 03:31:36;;;;;;;;;;;3.00;99.90;;;;;;5001191;28;20160;-81
2021/12/06 03:34:03;;;;;;;71.18;23.23;;;3.10;99.90;;;;;;4989672;28;20012;-82
2021/12/06 03:36:31;;;;;;;72.38;23.70;;;2.60;99.90;;;;;;4989796;28;20065;-81
2021/12/06 03:38:59;;;;;;;75.78;22.15;;;3.10;99.90;;;;;;4986213;28;20065;-81
2021/12/06 03:41:27;;;;;;;64.60;23.40;;;2.60;99.90;;;;;;4989763;28;20050;-81
2021/12/06 03:43:53;;;;;;;73.32;23.75;;;2.60;99.90;;;;;;4973659;28;20049;-81
2021/12/06 03:46:21;;;;;;;70.78;23.58;;;2.60;99.90;;;;;;4987476;28;20367;-82
2021/12/06 03:48:47;;;;;;;65.88;23.88;;;2.60;99.90;;;;;;4989775;28;20048;-81
2021/12/06 03:51:14;;;;;;;74.18;23.10;;;3.40;99.90;;;;;;4999229;28;20041;-81
2021/12/06 03:53:40;;;;;;;70.63;24.13;;;2.60;99.90;;;;;;5009801;28;20104;-81
2021/12/06 03:56:06;;;;;;;68.18;24.33;;;2.70;99.90;;;;;;4989162;28;20403;-81
2021/12/06 03:58:33;;;;;;;66.95;23.98;;;2.60;99.90;;;;;;5002687;28;20069;-81
2021/12/06 04:01:02;;;;;;;63.75;23.33;;;2.60;99.90;;;;;;4988455;28;20043;-82
2021/12/06 04:03:30;;;;;;;73.72;24.45;;;2.60;99.90;;;;;;4988475;28;20042;-81
2021/12/06 04:05:56;;;;;;;72.90;24.98;;;2.60;99.90;;;;;;4973785;28;20058;-81
2021/12/06 04:08:22;;;;;;;74.88;24.48;;;2.60;99.90;;;;;;4973325;28;20054;-81
2021/12/06 04:10:48;;;;;;;69.13;22.92;;;2.60;99.90;;;;;;4989694;28;20141;-82
2021/12/06 04:13:15;;;;;;;;;;;2.90;99.90;;;;;;4973234;28;20061;-81
2021/12/06 04:15:41;;;;;;;71.43;22.85;;;2.60;99.90;;;;;;4976781;28;20386;-81
2021/12/06 04:18:07;;;;;;;67.82;23.10;;;2.60;99.90;;;;;;4988243;28;20081;-81
2021/12/06 04:20:34;;;;;;;76.07;24.98;;;2.60;99.90;;;;;;4989930;28;20050;-82
2021/12/06 04:23:01;;;;;;;78.70;25.38;;;2.50;99.90;;;;;;4991980;28;20097;-82
2021/12/06 04:25:27;;;;;;;80.60;25.38;;;2.50;99.90;;;;;;4993888;28;20061;-81
2021/12/06 04:27:54;;;;;;;76.32;23.20;;;2.50;99.90;;;;;;5011504;28;20050;-81
2021/12/06 04:30:22;;;;;;;79.28;26.08;;;2.50;99.90;;;;;;5011616;28;20243;-81
2021/12/06 04:32:50;;;;;;;88.10;25.05;;;2.70;99.90;;;;;;4995463;28;20120;-81
2021/12/06 04:35:16;;;;;;;76.82;23.20;;;2.50;99.90;;;;;;4992737;28;20057;-81
2021/12/06 04:37:41;;;;;;;83.55;26.23;;;2.50;99.90;;;;;;4976845;28;20047;-81
2021/12/06 04:40:08;;;;;;;75.95;25.23;;;2.50;99.90;;;;;;4960347;28;20088;-81
2021/12/06 04:42:34;;;;;;;85.35;25.70;;;2.50;99.90;;;;;;4992982;28;20057;-81
2021/12/06 04:45:00;;;;;;;94.75;27.35;;;2.70;99.90;;;;;;4992691;28;20046;-81
2021/12/06 04:47:26;;;;;;;87.03;26.20;;;2.50;99.90;;;;;;4974588;28;20539;-81
2021/12/06 04:49:51;;;;;;;88.25;25.70;;;2.90;99.90;;;;;;4990176;28;20050;-82
2021/12/06 04:57:39;;;;;;;82.22;26.65;;;2.50;99.90;;;;;;5247946;23;20069;-81
2021/12/06 05:00:23;;;;;;;82.53;23.83;;;2.50;99.90;;;;;;4994755;28;20054;-82
2021/12/06 05:02:49;;;;;;;75.07;25.05;;;2.50;99.90;;;;;;4974984;28;20046;-81
2021/12/06 05:05:20;;;;;;;89.22;26.58;;;2.90;99.90;;;;;;4987743;28;20064;-81
2021/12/06 05:07:52;;;;;;;78.60;25.05;;;2.40;99.90;;;;;;4979556;28;20046;-81
2021/12/06 05:10:18;;;;;;;81.45;24.27;;;2.50;99.90;;;;;;5010980;28;20052;-81
2021/12/06 05:12:46;;;;;;;93.97;27.48;;;2.50;99.90;;;;;;4989783;28;20047;-81
2021/12/06 05:15:13;;;;;;;90.90;25.90;;;2.70;99.90;;;;;;4991346;28;20343;-81
2021/12/06 05:17:39;;;;;;;84.28;26.73;;;2.50;99.90;;;;;;4991264;28;20050;-82
2021/12/06 05:20:07;;;;;;;79.93;23.95;;;2.50;99.90;;;;;;4992448;28;20471;-81
2021/12/06 05:22:33;;;;;;;86.65;24.58;;;2.50;99.90;;;;;;4976275;28;20042;-81
2021/12/06 05:24:58;;;;;;;;;;;2.50;99.90;;;;;;4959664;28;20556;-81
2021/12/06 05:27:28;;;;;;;82.82;25.88;;;2.50;99.90;;;;;;4978788;28;19936;-81
2021/12/06 05:30:02;;;;;;;82.78;25.70;;;2.50;99.90;;;;;;4991126;28;20065;-81
2021/12/06 05:32:31;;;;;;;78.28;25.92;;;3.20;99.90;;;;;;5003848;28;20077;-82
2021/12/06 05:35:04;;;;;;;68.68;22.52;;;2.50;99.90;;;;;;4993046;28;20112;-82
2021/12/06 05:37:31;;;;;;;73.72;23.98;;;2.50;99.90;;;;;;4992210;28;20510;-82
2021/12/06 05:39:57;;;;;;;63.08;22.20;;;2.50;99.90;;;;;;4991519;28;20050;-81
2021/12/06 05:42:23;;;;;;;69.57;23.40;;;3.00;99.90;;;;;;4992668;28;20050;-81
2021/12/06 05:44:49;;;;;;;71.00;25.25;;;2.50;99.90;;;;;;4986655;28;20052;-81
2021/12/06 05:47:16;;;;;;;80.18;24.90;;;2.50;99.90;;;;;;5009449;28;20502;-82
2021/12/06 05:49:42;;;;;;;62.75;22.13;;;2.40;99.90;;;;;;5011127;28;20127;-81
2021/12/06 05:52:08;;;;;;;77.57;25.60;;;2.50;99.90;;;;;;4994108;28;20523;-81
2021/12/06 05:54:36;;;;;;;;;;;3.20;99.90;;;;;;4978812;28;20061;-81
2021/12/06 05:57:04;;;;;;;65.18;22.40;;;2.50;99.90;;;;;;4993625;28;19925;-81
2021/12/06 05:59:30;;;;;;;74.80;22.45;;;2.50;99.90;;;;;;4994791;28;20062;-81
2021/12/06 06:01:56;;;;;;;71.55;22.95;;;2.50;99.90;;;;;;4992566;28;20049;-81
2021/12/06 06:04:22;;;;;;;;;;;2.40;99.90;;;;;;5011084;28;20505;-82
2021/12/06 06:06:49;;;;;;;70.43;23.17;;;3.20;99.90;;;;;;5010492;28;19925;-82
2021/12/06 06:09:16;;;;;;;67.25;22.90;;;2.40;99.90;;;;;;5011131;28;20065;-81
2021/12/06 06:11:41;;;;;;;68.22;22.15;;;2.40;99.90;;;;;;5010628;28;20050;-82
2021/12/06 06:14:09;;;;;;;70.78;21.58;;;2.40;99.90;;;;;;4996938;28;20050;-81
2021/12/06 06:16:46;;;;;;;66.07;21.65;;;2.80;99.90;;;;;;4989065;28;20084;-81
2021/12/06 06:19:12;;;;;;;75.18;24.08;;;2.40;99.90;;;;;;4991138;28;20071;-81
2021/12/06 06:21:37;;;;;;;75.78;23.70;;;2.40;99.90;;;;;;5003907;28;20109;-82
2021/12/06 06:24:03;;;;;;;76.05;25.38;;;2.40;99.90;;;;;;4993748;28;20467;-81
2021/12/06 06:26:30;;;;;;;81.53;22.15;;;2.40;99.90;;;;;;5010332;28;20471;-82
2021/12/06 06:28:55;;;;;;;73.70;23.13;;;2.40;99.90;;;;;;4993664;28;20505;-82
2021/12/06 06:31:21;;;;;;;78.32;24.23;;;2.30;99.90;;;;;;4992394;28;20042;-81
2021/12/06 06:33:47;;;;;;;76.55;24.25;;;2.70;99.90;;;;;;5006759;28;20060;-82
2021/12/06 06:36:12;;;;;;;71.13;22.95;;;2.30;99.90;;;;;;5010257;28;20100;-81
2021/12/06 06:38:39;;;;;;;73.80;23.67;;;2.30;99.90;;;;;;4997033;28;20133;-81
2021/12/06 06:41:04;;;;;;;;;;;2.80;99.90;;;;;;4990447;28;20057;-82
2021/12/06 06:43:30;;;;;;;67.22;21.33;;;2.30;99.90;;;;;;4974285;28;20290;-81
2021/12/06 06:45:56;;;;;;;71.57;23.20;;;2.30;99.90;;;;;;4988288;28;20046;-81
2021/12/06 06:48:22;;;;;;;74.55;21.77;;;2.30;99.90;;;;;;4989956;28;20050;-81
2021/12/06 06:50:47;;;;;;;77.78;22.23;;;2.60;99.90;;;;;;4990847;28;20074;-82
2021/12/06 06:53:13;;;;;;;73.53;22.83;;;2.30;99.90;;;;;;4974086;28;20058;-81
2021/12/06 06:55:39;;;;;;;71.38;23.10;;;2.90;99.90;;;;;;4993416;28;20054;-81
2021/12/06 06:58:04;;;;;;;65.43;21.27;;;2.30;99.90;;;;;;4978774;28;20059;-81
2021/12/06 07:00:34;;;;;;;64.13;21.25;;;2.30;99.90;;;;;;4989696;28;20053;-82
2021/12/06 07:03:01;;;;;;;68.00;22.52;;;2.30;99.90;;;;;;4988876;28;20117;-81
2021/12/06 07:05:31;;;;;;;65.65;22.63;;;2.80;99.90;;;;;;4990547;28;20135;-81
2021/12/06 07:07:57;;;;;;;64.63;22.63;;;2.60;99.90;;;;;;4989984;28;20054;-81
2021/12/06 07:10:23;;;;;;;61.65;20.40;;;2.20;99.90;;;;;;4990212;28;20050;-81
2021/12/06 07:12:54;;;;;;;55.30;18.70;;;2.60;99.90;;;;;;4990233;28;20057;-81
2021/12/06 07:15:25;;;;;;;57.65;19.92;;;2.20;99.90;;;;;;4976365;28;20228;-81
2021/12/06 07:17:52;;;;;;;58.38;20.63;;;2.10;99.90;;;;;;5008728;28;20089;-81
2021/12/06 07:20:19;;;;;;;57.88;19.13;;;2.80;99.90;;;;;;4963878;28;20050;-81
2021/12/06 07:22:47;;;;;;;58.38;21.20;;;2.10;99.90;;;;;;4990172;28;20060;-81
2021/12/06 07:25:15;;;;;;;63.30;19.70;;;2.10;99.90;;;;;;4977936;28;20034;-81
2021/12/06 07:27:41;;;;;;;60.75;18.75;;;2.10;99.90;;;;;;4973616;28;20053;-81
2021/12/06 07:30:08;;;;;;;54.17;19.05;;;2.10;99.90;;;;;;4987949;28;20054;-81
2021/12/06 07:32:34;;;;;;;57.50;19.83;;;2.10;99.90;;;;;;4988696;28;20058;-81
2021/12/06 07:35:00;;;;;;;49.83;17.23;;;2.10;99.90;;;;;;4989489;28;20050;-81
2021/12/06 07:37:26;;;;;;;51.08;18.85;;;2.10;99.90;;;;;;4997677;28;20137;-81
2021/12/06 07:39:52;;;;;;;51.60;18.42;;;2.10;99.90;;;;;;4994652;28;20085;-81
2021/12/06 07:42:18;;;;;;;46.75;16.38;;;1.30;99.90;;;;;;4975035;28;20049;-81
2021/12/06 07:44:44;;;;;;;47.72;16.92;;;2.00;99.90;;;;;;5000074;28;20038;-81
2021/12/06 07:47:10;;;;;;;;;;;2.00;99.90;;;;;;4976477;28;20176;-81
2021/12/06 07:49:37;;;;;;;49.63;17.35;;;2.00;99.90;;;;;;4977387;28;20000;-81
2021/12/06 07:52:04;;;;;;;55.42;18.45;;;2.00;99.90;;;;;;5003789;28;20061;-81
2021/12/06 07:54:31;;;;;;;50.90;17.80;;;2.00;99.90;;;;;;5009644;28;20050;-84
2021/12/06 07:56:57;;;;;;;51.60;16.67;;;2.30;99.90;;;;;;4992627;28;20060;-81
2021/12/06 07:59:22;;;;;;;50.80;16.85;;;2.00;99.90;;;;;;4980833;28;20061;-81
2021/12/06 08:01:49;;;;;;;53.22;18.00;;;2.00;99.90;;;;;;5011510;28;20081;-82
2021/12/06 08:04:15;;;;;;;46.40;16.08;;;2.00;99.90;;;;;;4995792;28;20112;-82
2021/12/06 08:06:41;;;;;;;46.63;17.23;;;2.00;99.90;;;;;;5013872;28;20054;-82
2021/12/06 08:09:08;;;;;;;54.42;17.50;;;2.00;99.90;;;;;;5013364;28;20140;-82
2021/12/06 08:11:33;;;;;;;;;;;2.00;99.90;;;;;;4997530;28;20041;-81
2021/12/06 08:14:00;;;;;;;53.10;19.05;;;2.60;99.90;;;;;;5013730;28;19928;-82
2021/12/06 08:16:32;;;;;;;52.22;17.90;;;2.00;99.90;;;;;;4992003;28;20049;-82
2021/12/06 08:18:59;;;;;;;56.80;19.23;;;2.00;99.90;;;;;;5007564;28;20081;-82
2021/12/06 08:21:25;;;;;;;58.35;20.05;;;2.00;99.90;;;;;;4997670;28;20615;-82
2021/12/06 08:23:53;;;;;;;62.33;20.33;;;2.00;99.90;;;;;;5013524;28;20097;-82
2021/12/06 08:26:22;;;;;;;59.17;19.70;;;2.00;99.90;;;;;;4996416;28;20073;-82
2021/12/06 08:28:48;;;;;;;55.05;19.17;;;2.00;99.90;;;;;;5014007;28;20077;-81
2021/12/06 08:31:15;;;;;;;59.33;19.42;;;2.00;99.90;;;;;;4995300;28;20061;-82
2021/12/06 08:33:41;;;;;;;53.97;18.38;;;2.00;99.90;;;;;;4996791;28;20125;-82
2021/12/06 08:36:11;;;;;;;62.55;19.30;;;2.10;99.90;;;;;;5012037;28;20053;-82
2021/12/06 08:38:38;;;;;;;69.60;22.35;;;2.00;99.90;;;;;;5011111;28;20130;-81
2021/12/06 08:41:07;;;;;;;74.10;24.77;;;2.00;99.90;;;;;;4996420;28;20058;-81
2021/12/06 08:43:33;;;;;;;87.47;26.55;;;2.10;99.90;;;;;;4992838;28;20046;-81
2021/12/06 08:46:04;;;;;;;81.53;25.88;;;2.50;99.90;;;;;;4985363;28;20478;-82
2021/12/06 08:48:32;;;;;;;102.18;30.90;;;2.00;99.90;;;;;;5011821;28;20053;-81
2021/12/06 08:51:00;;;;;;;102.55;30.02;;;2.10;99.90;;;;;;5012383;28;20136;-81
2021/12/06 08:53:26;;;;;;;103.90;30.83;;;2.80;99.90;;;;;;4996012;28;20045;-81
2021/12/06 08:55:52;;;;;;;87.85;27.80;;;2.10;99.90;;;;;;4995861;28;20046;-82
2021/12/06 08:58:18;;;;;;;77.03;24.88;;;2.10;99.90;;;;;;5011207;28;20688;-81
2021/12/06 09:00:44;;;;;;;61.50;21.05;;;2.60;99.90;;;;;;5000929;28;20050;-82
2021/12/06 09:03:11;;;;;;;56.55;19.10;;;2.10;99.90;;;;;;4991533;28;20117;-81
2021/12/06 09:05:41;;;;;;;60.17;19.00;;;2.10;99.90;;;;;;4984533;28;20471;-81
2021/12/06 09:08:08;;;;;;;57.05;20.08;;;2.10;99.90;;;;;;4990254;28;20043;-82
2021/12/06 09:10:35;;;;;;;56.25;18.88;;;2.10;99.90;;;;;;4962330;28;20133;-82
2021/12/06 09:13:02;;;;;;;46.65;17.85;;;2.10;99.90;;;;;;4992351;28;20628;-82
2021/12/06 09:15:28;;;;;;;49.03;16.40;;;2.10;99.90;;;;;;4990761;28;20054;-82
2021/12/06 09:17:55;;;;;;;56.83;17.13;;;2.90;99.90;;;;;;5007744;28;20525;-82
2021/12/06 09:20:26;;;;;;;44.35;16.30;;;2.10;99.90;;;;;;4989750;28;20691;-82
2021/12/06 09:22:52;;;;;;;44.67;17.17;;;2.30;99.90;;;;;;5006539;28;20117;-82
2021/12/06 09:25:19;;;;;;;54.67;17.20;;;2.60;99.90;;;;;;5010586;28;20049;-82
2021/12/06 09:27:46;;;;;;;42.60;15.15;;;2.80;99.90;;;;;;5011065;28;20060;-82
2021/12/06 09:30:15;;;;;;;47.50;16.42;;;2.20;99.90;;;;;;4989545;28;20038;-82
2021/12/06 09:32:41;;;;;;;51.95;16.75;;;2.20;99.90;;;;;;4992509;28;20566;-82
2021/12/06 09:35:10;;;;;;;;;;;2.20;99.90;;;;;;5009576;28;20129;-83
2021/12/06 09:37:37;;;;;;;49.65;17.67;;;2.20;99.90;;;;;;4989577;28;20588;-82
2021/12/06 09:40:05;;;;;;;48.47;16.58;;;2.20;99.90;;;;;;4967687;28;20132;-82
2021/12/06 09:42:33;;;;;;;46.75;16.38;;;2.20;99.90;;;;;;4985196;28;20042;-82
2021/12/06 09:45:00;;;;;;;40.13;14.02;;;2.30;99.90;;;;;;5009565;28;20050;-82
2021/12/06 09:47:27;;;;;;;33.50;14.15;;;2.30;99.90;;;;;;4976364;28;20050;-83
2021/12/06 09:49:54;;;;;;;31.65;13.32;;;2.90;99.90;;;;;;4994951;28;20058;-83
2021/12/06 09:52:21;;;;;;;39.22;14.30;;;2.30;99.90;;;;;;5009642;28;20372;-83
2021/12/06 09:54:47;;;;;;;37.13;13.75;;;2.30;99.90;;;;;;4993452;28;20517;-82
2021/12/06 09:57:12;;;;;;;;;;;3.00;99.90;;;;;;5008537;28;20052;-82
2021/12/06 09:59:41;;;;;;;30.95;11.85;;;2.80;99.90;;;;;;4989130;28;19921;-82
2021/12/06 10:02:10;;;;;;;32.88;12.45;;;2.30;99.90;;;;;;4972623;28;20461;-82
2021/12/06 10:04:41;;;;;;;34.85;12.32;;;2.40;99.90;;;;;;5002868;28;20048;-82
2021/12/06 10:07:09;;;;;;;29.25;12.70;;;2.30;99.90;;;;;;4993550;28;20049;-82
2021/12/06 10:09:37;;;;;;;29.85;12.93;;;2.40;99.90;;;;;;4994124;28;20055;-82
2021/12/06 10:12:03;;;;;;;32.25;13.45;;;2.40;99.90;;;;;;5010446;28;20068;-82
2021/12/06 10:14:30;;;;;;;30.33;12.50;;;2.40;99.90;;;;;;5009899;28;20499;-82
2021/12/06 10:16:58;;;;;;;37.85;14.27;;;2.50;99.90;;;;;;4980284;28;20135;-83
2021/12/06 10:19:25;;;;;;;38.15;14.45;;;2.60;99.90;;;;;;5010048;28;20057;-86
2021/12/06 10:21:52;;;;;;;30.17;11.77;;;2.70;99.90;;;;;;4978574;28;20058;-91
2021/12/06 10:24:23;;;;;;;31.73;13.43;;;2.70;99.90;;;;;;4978026;28;20042;-86
2021/12/06 10:26:51;;;;;;;33.33;13.45;;;2.70;99.90;;;;;;5010602;28;20055;-86
2021/12/06 10:29:22;;;;;;;31.25;13.02;;;2.80;99.90;;;;;;4989865;28;20061;-87
2021/12/06 10:31:51;;;;;;;27.83;12.70;;;2.80;99.90;;;;;;4989314;28;20054;-82
2021/12/06 10:34:24;;;;;;;31.48;13.32;;;2.80;99.90;;;;;;5011013;28;20060;-83
2021/12/06 10:36:50;;;;;;;32.03;13.20;;;2.80;99.90;;;;;;5011374;28;20050;-86
2021/12/06 10:39:16;;;;;;;39.90;13.75;;;2.80;99.90;;;;;;4994189;28;20046;-86
2021/12/06 10:41:47;;;;;;;29.05;12.77;;;2.80;99.90;;;;;;5010623;28;20050;-84
2021/12/06 10:44:14;;;;;;;32.67;13.48;;;2.80;99.90;;;;;;5009900;28;20050;-84
2021/12/06 10:46:48;;;;;;;36.25;14.90;;;2.80;99.90;;;;;;5008261;28;20054;-83
2021/12/06 10:49:24;;;;;;;33.50;14.23;;;2.90;99.90;;;;;;4989217;28;20074;-84
2021/12/06 10:51:50;;;;;;;40.33;15.60;;;2.80;99.90;;;;;;4991580;28;20049;-83
2021/12/06 10:54:35;;;;;;;35.28;15.82;;;2.80;99.90;;;;;;4992880;28;20053;-83
2021/12/06 10:57:03;;;;;;;39.03;15.48;;;2.80;99.90;;;;;;5009211;28;20524;-83
2021/12/06 10:59:37;;;;;;;41.22;17.42;;;2.80;99.90;;;;;;4977574;28;20081;-84
2021/12/06 11:02:07;;;;;;;44.47;16.98;;;2.90;99.90;;;;;;4990377;28;20057;-84
2021/12/06 11:04:33;;;;;;;37.45;16.38;;;2.90;99.90;;;;;;5008926;28;20390;-83
2021/12/06 11:07:05;;;;;;;44.25;15.98;;;3.00;99.90;;;;;;4993675;28;20483;-86
2021/12/06 11:09:33;;;;;;;37.85;16.13;;;3.10;99.90;;;;;;5003797;28;20046;-87
2021/12/06 11:12:04;;;;;;;42.58;17.35;;;3.10;99.90;;;;;;5008429;28;20056;-84
2021/12/06 11:14:36;;;;;;;40.53;17.13;;;3.00;99.90;;;;;;4992949;28;20048;-80
2021/12/06 11:17:10;;;;;;;39.72;17.48;;;3.10;99.90;;;;;;5005650;28;20050;-80
2021/12/06 11:19:37;;;;;;;43.75;18.35;;;3.20;99.90;;;;;;4984303;28;20076;-80
2021/12/06 11:22:05;;;;;;;47.28;20.25;;;3.30;99.90;;;;;;4983534;28;20050;-79
2021/12/06 11:24:46;;;;;;;39.97;16.90;;;3.00;99.90;;;;;;4998030;28;20034;-80
2021/12/06 11:27:19;;;;;;;40.90;15.98;;;3.00;99.90;;;;;;4996891;28;20054;-81
2021/12/06 11:29:54;;;;;;;39.03;15.77;;;3.60;99.90;;;;;;4998594;28;20054;-80
2021/12/06 11:32:48;;;;;;;39.35;15.98;;;3.00;99.90;;;;;;4979288;28;20073;-80
2021/12/06 11:35:23;;;;;;;37.17;15.07;;;3.00;99.90;;;;;;4999026;28;20058;-81
2021/12/06 11:38:01;;;;;;;40.42;17.00;;;3.00;99.90;;;;;;5000469;28;20043;-80
2021/12/06 11:40:35;;;;;;;36.78;14.88;;;3.00;99.90;;;;;;5006421;28;20057;-80
2021/12/06 11:43:04;;;;;;;42.92;17.33;;;3.00;99.90;;;;;;4982645;28;20125;-80
2021/12/06 11:45:30;;;;;;;39.88;16.45;;;3.10;99.90;;;;;;4983801;28;20065;-80
2021/12/06 11:48:05;;;;;;;42.00;17.42;;;3.10;99.90;;;;;;5002989;28;20364;-80
2021/12/06 11:50:32;;;;;;;35.22;14.70;;;3.10;99.90;;;;;;4981276;28;20069;-80
2021/12/06 11:53:04;;;;;;;44.58;18.20;;;3.50;99.90;;;;;;4975796;28;20050;-80
2021/12/06 11:55:30;;;;;;;39.05;16.85;;;3.20;99.90;;;;;;4983493;28;20380;-80
2021/12/06 11:57:56;;;;;;;41.33;16.90;;;3.60;99.90;;;;;;4997123;28;20073;-80
2021/12/06 12:00:24;;;;;;;41.17;15.15;;;3.40;99.90;;;;;;4966083;28;20046;-80
2021/12/06 12:02:53;;;;;;;39.75;15.68;;;3.50;99.90;;;;;;4988492;28;20054;-80
2021/12/06 12:05:38;;;;;;;43.38;16.25;;;3.40;99.90;;;;;;4994610;28;20047;-80
2021/12/06 12:08:09;;;;;;;42.72;16.20;;;3.40;99.90;;;;;;4997274;28;20058;-80
2021/12/06 12:10:41;;;;;;;39.72;15.95;;;3.50;99.90;;;;;;4997693;28;20058;-80
2021/12/06 12:13:08;;;;;;;38.58;15.73;;;3.50;99.90;;;;;;4989567;28;20154;-80
2021/12/06 12:15:34;;;;;;;38.67;16.40;;;4.10;99.90;;;;;;4995218;28;20137;-80
2021/12/06 12:18:00;;;;;;;41.55;16.17;;;3.60;99.90;;;;;;5007614;28;20061;-80
2021/12/06 12:20:27;;;;;;;41.78;16.55;;;3.60;99.90;;;;;;4997799;28;20055;-80
2021/12/06 12:23:02;;;;;;;36.08;15.10;;;3.60;99.90;;;;;;4986328;28;20058;-86
2021/12/06 12:25:33;;;;;;;42.95;18.48;;;3.80;99.90;;;;;;4978802;28;20130;-81
2021/12/06 12:30:37;;;;;;;44.22;18.08;;;3.60;99.90;;;;;;4995657;28;20069;-80
2021/12/06 12:33:06;;;;;;;46.17;18.17;;;4.00;99.90;;;;;;4982427;28;20038;-80
2021/12/06 12:35:34;;;;;;;45.15;18.80;;;3.60;99.90;;;;;;4995303;28;20085;-80
2021/12/06 12:38:00;;;;;;;40.85;17.80;;;3.80;99.90;;;;;;4993874;28;20149;-82
2021/12/06 12:40:49;;;;;;;45.47;17.70;;;3.60;99.90;;;;;;4983565;28;20124;-81
2021/12/06 12:43:19;;;;;;;47.38;19.75;;;3.60;99.90;;;;;;4988374;28;20038;-81
2021/12/06 12:45:56;;;;;;;48.33;19.88;;;3.60;99.90;;;;;;4984029;28;20050;-81
2021/12/06 12:48:25;;;;;;;;;;;3.60;99.90;;;;;;4988134;28;20061;-81
2021/12/06 12:51:08;;;;;;;42.17;18.70;;;3.60;99.90;;;;;;4986981;28;19921;-79
2021/12/06 12:53:54;;;;;;;49.28;19.58;;;3.60;99.90;;;;;;5001534;28;20058;-81
2021/12/06 12:56:33;;;;;;;51.47;20.70;;;3.70;99.90;;;;;;5011106;28;20058;-83
2021/12/06 12:59:15;;;;;;;45.67;20.02;;;3.70;99.90;;;;;;4995917;28;20096;-83
2021/12/06 13:01:45;;;;;;;42.92;20.55;;;3.70;99.90;;;;;;4995910;28;20329;-81
2021/12/06 13:04:11;;;;;;;49.45;20.85;;;3.70;99.90;;;;;;5011550;28;20407;-84
2021/12/06 13:06:40;;;;;;;48.10;20.60;;;3.80;99.90;;;;;;4986457;28;20543;-82
2021/12/06 13:09:19;;;;;;;51.65;22.73;;;3.80;99.90;;;;;;4996082;28;20049;-88
2021/12/06 13:11:49;;;;;;;49.22;22.30;;;3.80;99.90;;;;;;5010686;28;20061;-86